Time;durP1;ratioP1;P1;durP2;ratioP2;P2;SDS_P1;SDS_P2;PMS_P1;PMS_P2;Temp;Humidity;BMP_temperature;BMP_pressure;BME280_temperature;BME280_humidity;BME280_pressure;Samples;Min_cycle;Max_cycle;Signal;HPM_P1;HPM_P2
2023/01/17 00:00:06;;;;;;;4.97;3.90;;;8.00;38.30;;;;;;5034603;28;20178;-49
2023/01/17 00:02:31;;;;;;;5.43;3.72;;;8.00;38.40;;;;;;5034359;28;20194;-49
2023/01/17 00:10:28;;;;;;;6.57;5.28;;;8.00;38.50;;;;;;5034610;28;20199;-49
2023/01/17 00:12:59;;;;;;;7.60;5.10;;;7.90;38.80;;;;;;5034197;28;20656;-50
2023/01/17 00:15:26;;;;;;;7.03;5.80;;;8.00;38.80;;;;;;5034137;28;20247;-49
2023/01/17 00:17:52;;;;;;;4.93;4.47;;;7.90;38.80;;;;;;5034416;28;20185;-49
2023/01/17 00:26:18;;;;;;;5.75;4.72;;;8.00;38.70;;;;;;5033887;28;20209;-49
2023/01/17 01:35:42;;;;;;;3.05;1.98;;;8.70;37.80;;;;;;5032650;28;20208;-49
2023/01/17 01:38:08;;;;;;;2.73;1.93;;;8.80;37.50;;;;;;5032988;28;20205;-49
2023/01/17 01:40:34;;;;;;;2.77;1.47;;;8.70;37.50;;;;;;5032723;28;20919;-48
2023/01/17 01:43:04;;;;;;;3.23;1.37;;;8.80;37.30;;;;;;5032467;28;20861;-49
2023/01/17 01:45:31;;;;;;;1.92;1.25;;;8.90;37.30;;;;;;5032571;28;20232;-48
2023/01/17 01:48:13;;;;;;;2.30;1.10;;;9.10;37.10;;;;;;5032462;28;20264;-48
2023/01/17 01:50:39;;;;;;;2.40;1.70;;;9.10;36.70;;;;;;5032875;28;20169;-49
2023/01/17 01:53:05;;;;;;;2.08;1.25;;;9.20;36.70;;;;;;5032532;28;20196;-49
2023/01/17 01:55:36;;;;;;;1.85;1.23;;;9.20;36.50;;;;;;5032236;28;20655;-49
2023/01/17 01:58:10;;;;;;;1.70;1.23;;;9.30;36.00;;;;;;5032410;28;20643;-48
2023/01/17 02:00:37;;;;;;;1.90;1.08;;;9.20;36.50;;;;;;5032212;28;20167;-49
2023/01/17 02:03:13;;;;;;;2.15;0.95;;;9.30;36.20;;;;;;5032253;28;20200;-49
2023/01/17 02:05:42;;;;;;;1.83;0.98;;;9.40;36.30;;;;;;5032139;28;20166;-49
2023/01/17 02:08:11;;;;;;;1.85;1.02;;;9.50;36.00;;;;;;5032419;28;20360;-49
2023/01/17 02:10:39;;;;;;;1.85;1.15;;;9.60;35.90;;;;;;5032501;28;20170;-49
2023/01/17 02:13:08;;;;;;;1.55;1.13;;;9.70;35.70;;;;;;5032161;28;20200;-49
2023/01/17 02:15:45;;;;;;;1.30;0.90;;;9.60;35.60;;;;;;5032083;28;20572;-49
2023/01/17 02:18:41;;;;;;;4.15;1.00;;;9.70;35.80;;;;;;5032200;28;20571;-49
2023/01/17 02:21:26;;;;;;;2.00;0.90;;;9.70;35.50;;;;;;5032345;28;20189;-48
2023/01/17 02:24:13;;;;;;;1.50;0.88;;;9.60;35.60;;;;;;5032026;28;20189;-48
2023/01/17 02:27:05;;;;;;;1.40;0.70;;;9.60;35.80;;;;;;5031993;28;20176;-48
2023/01/17 02:29:46;;;;;;;1.10;0.70;;;9.60;35.90;;;;;;5032041;28;20191;-49
2023/01/17 02:32:39;;;;;;;1.50;0.60;;;9.60;35.80;;;;;;5032027;28;20206;-49
2023/01/17 02:35:12;;;;;;;1.00;0.60;;;9.50;36.00;;;;;;5031842;28;20649;-48
2023/01/17 02:38:02;;;;;;;1.77;0.90;;;9.30;36.30;;;;;;5031947;28;20177;-49
2023/01/17 02:40:40;;;;;;;1.45;0.85;;;9.40;36.40;;;;;;5032063;28;20170;-48
2023/01/17 02:43:10;;;;;;;2.70;1.00;;;9.50;36.10;;;;;;5031785;28;20228;-48
2023/01/17 02:45:36;;;;;;;1.67;0.80;;;9.50;35.90;;;;;;5031972;28;20213;-48
2023/01/17 02:48:06;;;;;;;1.57;0.93;;;9.60;35.90;;;;;;5032048;28;20671;-48
2023/01/17 02:50:49;;;;;;;1.00;0.70;;;9.60;36.00;;;;;;5031797;28;20177;-49
2023/01/17 02:53:30;;;;;;;1.20;0.73;;;9.70;35.90;;;;;;5031769;28;20200;-49
2023/01/17 02:56:23;;;;;;;1.30;0.70;;;9.70;35.70;;;;;;5031646;28;20200;-48
2023/01/17 02:59:11;;;;;;;1.27;0.40;;;9.80;35.80;;;;;;5031882;28;20218;-48
2023/01/17 03:01:53;;;;;;;1.33;0.60;;;9.70;35.30;;;;;;5031641;28;20184;-49
2023/01/17 03:04:47;;;;;;;0.90;0.40;;;9.70;35.60;;;;;;5030278;28;20212;-48
2023/01/17 03:07:22;;;;;;;1.10;0.68;;;9.60;35.80;;;;;;5031633;28;20195;-49
2023/01/17 03:09:52;;;;;;;1.20;0.50;;;9.80;35.70;;;;;;5031657;28;20296;-48
2023/01/17 03:12:20;;;;;;;1.60;0.85;;;9.80;35.40;;;;;;5034761;28;20192;-49
2023/01/17 03:14:45;;;;;;;0.90;0.40;;;9.90;35.20;;;;;;5035258;28;20173;-49
2023/01/17 03:17:11;;;;;;;1.20;0.40;;;9.80;34.70;;;;;;5035548;28;20670;-48
2023/01/17 03:19:37;;;;;;;1.07;0.60;;;9.80;35.10;;;;;;5035355;28;20563;-48
2023/01/17 03:22:03;;;;;;;1.63;0.60;;;9.90;35.00;;;;;;5035505;28;20181;-48
2023/01/17 03:24:28;;;;;;;3.10;0.90;;;9.90;34.40;;;;;;5035054;28;20260;-49
2023/01/17 03:26:54;;;;;;;1.67;0.60;;;9.90;34.50;;;;;;5035132;28;20180;-48
2023/01/17 03:29:20;;;;;;;2.10;0.40;;;9.90;34.10;;;;;;5035243;28;20295;-48
2023/01/17 03:31:45;;;;;;;1.43;0.57;;;9.90;34.20;;;;;;5035118;28;20531;-49
2023/01/17 03:34:11;;;;;;;5.63;0.50;;;9.80;34.30;;;;;;5034877;28;20196;-49
2023/01/17 03:36:37;;;;;;;2.70;0.33;;;9.80;34.10;;;;;;5034919;28;20179;-49
2023/01/17 03:39:03;;;;;;;0.90;0.50;;;9.80;34.10;;;;;;5035049;28;20411;-49
2023/01/17 03:41:29;;;;;;;1.20;0.30;;;9.80;33.80;;;;;;5034892;28;20180;-49
2023/01/17 03:43:54;;;;;;;1.10;0.50;;;9.80;33.70;;;;;;5034667;28;20455;-48
2023/01/17 03:46:23;;;;;;;0.90;0.40;;;9.80;33.70;;;;;;5034644;28;20181;-49
2023/01/17 03:48:49;;;;;;;1.30;0.40;;;9.70;34.30;;;;;;5034718;28;20738;-49
2023/01/17 03:51:15;;;;;;;5.97;0.50;;;9.80;34.10;;;;;;5034795;28;20178;-49
2023/01/17 03:53:41;;;;;;;1.50;0.67;;;9.70;33.90;;;;;;5034590;28;20561;-49
2023/01/17 03:56:07;;;;;;;1.30;0.40;;;9.50;34.50;;;;;;5034398;28;20904;-48
2023/01/17 03:58:33;;;;;;;1.10;0.60;;;9.50;34.40;;;;;;5034664;28;20709;-49
2023/01/17 04:00:59;;;;;;;0.90;0.40;;;9.50;34.30;;;;;;5034825;28;20270;-48
2023/01/17 04:03:25;;;;;;;1.23;0.50;;;9.50;34.60;;;;;;5034773;28;20225;-49
2023/01/17 04:05:50;;;;;;;1.97;0.60;;;9.50;34.20;;;;;;5034334;28;20441;-49
2023/01/17 04:08:16;;;;;;;1.40;0.60;;;9.40;34.80;;;;;;5034379;28;20700;-49
2023/01/17 04:10:42;;;;;;;1.37;0.50;;;9.50;34.60;;;;;;5034380;28;20190;-48
2023/01/17 04:13:08;;;;;;;4.53;1.00;;;9.50;34.00;;;;;;5034584;28;20291;-48
2023/01/17 04:15:34;;;;;;;0.90;0.40;;;9.40;34.40;;;;;;5034084;28;20561;-48
2023/01/17 04:18:00;;;;;;;1.10;0.60;;;9.40;34.60;;;;;;5034342;28;20181;-48
2023/01/17 04:20:44;;;;;;;1.10;0.70;;;9.40;34.60;;;;;;5034197;28;20421;-49
2023/01/17 04:23:10;;;;;;;3.80;0.80;;;9.40;34.50;;;;;;5034331;28;20283;-48
2023/01/17 04:25:36;;;;;;;2.72;0.93;;;9.50;34.50;;;;;;5033934;28;20237;-48
2023/01/17 04:28:03;;;;;;;2.47;1.60;;;9.50;34.30;;;;;;5034096;28;20201;-49
2023/01/17 04:30:30;;;;;;;1.23;0.60;;;9.30;34.60;;;;;;5034162;28;20409;-48
2023/01/17 04:32:56;;;;;;;2.10;0.82;;;9.40;34.90;;;;;;5034186;28;20198;-48
2023/01/17 04:35:22;;;;;;;0.95;0.55;;;9.40;34.50;;;;;;5033726;28;20190;-49
2023/01/17 04:37:48;;;;;;;1.50;1.10;;;9.30;34.60;;;;;;5034197;28;20541;-48
2023/01/17 04:40:14;;;;;;;4.30;1.23;;;9.30;35.00;;;;;;5034059;28;20492;-49
2023/01/17 04:42:40;;;;;;;1.90;1.40;;;9.30;34.60;;;;;;5033598;28;20208;-48
2023/01/17 04:45:06;;;;;;;2.60;1.10;;;9.30;34.80;;;;;;5032492;28;20419;-49
2023/01/17 04:47:33;;;;;;;1.70;1.33;;;9.50;34.50;;;;;;5032620;28;20174;-49
2023/01/17 04:49:59;;;;;;;1.65;1.33;;;9.50;34.30;;;;;;5032886;28;20188;-48
2023/01/17 04:52:24;;;;;;;1.40;0.77;;;9.60;34.00;;;;;;5032563;28;20189;-48
2023/01/17 04:54:51;;;;;;;3.03;0.83;;;9.60;34.00;;;;;;5031088;28;20168;-49
2023/01/17 04:57:17;;;;;;;1.70;0.93;;;9.60;33.70;;;;;;5032799;28;20541;-49
2023/01/17 04:59:44;;;;;;;1.10;0.60;;;9.70;33.70;;;;;;5032608;28;20180;-49
2023/01/17 05:02:10;;;;;;;3.08;0.90;;;9.70;33.50;;;;;;5032687;28;20174;-49
2023/01/17 05:04:36;;;;;;;1.10;0.63;;;9.60;33.60;;;;;;5032186;28;20177;-49
2023/01/17 05:07:02;;;;;;;1.00;0.70;;;9.50;33.80;;;;;;5032591;28;20173;-49
2023/01/17 05:09:27;;;;;;;1.80;1.10;;;9.40;34.00;;;;;;5032594;28;20448;-49
2023/01/17 05:11:54;;;;;;;2.03;0.73;;;9.50;34.00;;;;;;5032336;28;20166;-49
2023/01/17 05:14:20;;;;;;;1.27;0.93;;;9.60;33.70;;;;;;5032006;28;20669;-50
2023/01/17 05:16:46;;;;;;;3.00;1.05;;;9.60;33.60;;;;;;5032203;28;20211;-49
2023/01/17 05:19:12;;;;;;;1.40;0.90;;;9.70;33.60;;;;;;5032110;28;20205;-49
2023/01/17 05:21:38;;;;;;;2.17;1.17;;;9.50;33.60;;;;;;5032361;28;20184;-49
2023/01/17 05:24:04;;;;;;;1.00;0.50;;;9.50;33.50;;;;;;5032041;28;20194;-50
2023/01/17 05:26:30;;;;;;;3.10;1.23;;;9.40;34.00;;;;;;5032111;28;20562;-49
2023/01/17 05:28:55;;;;;;;1.37;1.00;;;9.40;33.60;;;;;;5031964;28;20529;-49
2023/01/17 05:31:21;;;;;;;3.10;1.13;;;9.50;33.50;;;;;;5032065;28;20245;-49
2023/01/17 05:33:47;;;;;;;1.70;1.13;;;9.60;33.10;;;;;;5031516;28;20662;-49
2023/01/17 05:36:12;;;;;;;3.27;0.90;;;9.60;33.30;;;;;;5031698;28;20606;-50
2023/01/17 05:38:38;;;;;;;3.90;0.83;;;9.60;33.20;;;;;;5032073;28;20181;-50
2023/01/17 05:41:04;;;;;;;3.97;1.20;;;9.70;33.10;;;;;;5031903;28;20173;-48
2023/01/17 05:43:30;;;;;;;1.30;0.50;;;9.70;33.00;;;;;;4990068;28;1210222;-49
2023/01/17 05:45:56;;;;;;;2.53;0.90;;;9.70;32.70;;;;;;5032381;28;20184;-49
2023/01/17 05:48:21;;;;;;;2.23;1.03;;;9.50;33.00;;;;;;5032429;28;20867;-49
2023/01/17 05:50:47;;;;;;;2.30;1.20;;;9.50;32.80;;;;;;5032532;28;20242;-49
2023/01/17 05:53:14;;;;;;;4.40;1.20;;;9.40;33.10;;;;;;5032450;28;20276;-49
2023/01/17 05:55:41;;;;;;;1.25;0.85;;;9.50;33.30;;;;;;5032312;28;20644;-49
2023/01/17 05:58:12;;;;;;;2.47;0.90;;;9.40;33.20;;;;;;5032288;28;20182;-48
2023/01/17 06:00:38;;;;;;;1.50;0.70;;;9.40;33.20;;;;;;5032684;28;20292;-49
2023/01/17 06:03:03;;;;;;;2.67;1.23;;;9.50;33.10;;;;;;5032167;28;20667;-48
2023/01/17 06:05:29;;;;;;;1.87;0.77;;;9.40;33.00;;;;;;5032125;28;20405;-48
2023/01/17 06:07:55;;;;;;;1.80;1.27;;;9.40;33.40;;;;;;5032291;28;20212;-49
2023/01/17 06:10:22;;;;;;;2.08;1.10;;;9.40;33.00;;;;;;5032141;28;20512;-48
2023/01/17 06:12:48;;;;;;;2.55;1.15;;;9.30;33.30;;;;;;5032230;28;20192;-48
2023/01/17 06:15:15;;;;;;;1.20;0.70;;;9.30;33.30;;;;;;5031897;28;20216;-48
2023/01/17 06:17:41;;;;;;;1.63;1.10;;;9.40;33.20;;;;;;5031953;28;20216;-49
2023/01/17 06:20:09;;;;;;;1.83;1.37;;;9.30;33.10;;;;;;5032070;28;20177;-49
2023/01/17 06:22:35;;;;;;;1.45;0.75;;;9.30;34.00;;;;;;5032285;28;20223;-49
2023/01/17 06:25:01;;;;;;;1.83;1.00;;;9.20;33.60;;;;;;5031788;28;20549;-49
2023/01/17 06:27:26;;;;;;;2.43;1.17;;;9.20;33.60;;;;;;5031974;28;20173;-48
2023/01/17 06:29:52;;;;;;;2.17;1.20;;;9.30;33.60;;;;;;5031859;28;20205;-49
2023/01/17 06:32:18;;;;;;;1.63;0.80;;;9.20;33.50;;;;;;5031725;28;20173;-48
2023/01/17 06:34:44;;;;;;;1.27;0.70;;;9.10;33.90;;;;;;5031680;28;20825;-49
2023/01/17 06:37:10;;;;;;;1.50;1.00;;;9.00;34.30;;;;;;5032000;28;20555;-48
2023/01/17 06:39:35;;;;;;;1.77;1.30;;;9.10;34.30;;;;;;5031890;28;20180;-49
2023/01/17 06:42:01;;;;;;;3.43;1.40;;;9.20;34.10;;;;;;5031696;28;20426;-49
2023/01/17 06:44:27;;;;;;;2.03;1.43;;;9.10;34.10;;;;;;5031607;28;20201;-48
2023/01/17 06:46:53;;;;;;;1.40;1.10;;;9.20;34.00;;;;;;5034419;28;20579;-48
2023/01/17 06:49:19;;;;;;;4.40;1.37;;;9.20;33.90;;;;;;5035735;28;20554;-48
2023/01/17 06:51:44;;;;;;;1.80;0.90;;;9.20;34.10;;;;;;5035868;28;20292;-49
2023/01/17 06:54:10;;;;;;;2.20;1.00;;;9.10;34.00;;;;;;5035763;28;20558;-49
2023/01/17 06:56:37;;;;;;;3.03;1.03;;;9.20;34.00;;;;;;5035597;28;20399;-48
2023/01/17 06:59:03;;;;;;;1.40;1.10;;;9.20;33.70;;;;;;5035726;28;20481;-49
2023/01/17 07:01:29;;;;;;;2.20;1.35;;;9.20;34.80;;;;;;5035635;28;20188;-48
2023/01/17 07:03:55;;;;;;;1.58;1.08;;;9.20;33.90;;;;;;5035881;28;20197;-50
2023/01/17 07:06:22;;;;;;;1.92;1.02;;;9.10;33.70;;;;;;5035430;28;20598;-48
2023/01/17 07:08:48;;;;;;;1.25;0.80;;;9.00;34.00;;;;;;5035734;28;20204;-48
2023/01/17 07:11:14;;;;;;;2.10;1.20;;;9.00;34.00;;;;;;5035533;28;20184;-48
2023/01/17 07:13:40;;;;;;;2.27;1.10;;;9.10;33.80;;;;;;5035645;28;20518;-49
2023/01/17 07:16:06;;;;;;;1.37;1.00;;;9.20;33.80;;;;;;5035113;28;20172;-49
2023/01/17 07:18:33;;;;;;;2.28;0.93;;;9.10;33.70;;;;;;5035567;28;20422;-49
2023/01/17 07:21:00;;;;;;;2.25;1.25;;;9.00;33.90;;;;;;5035491;28;20200;-49
2023/01/17 07:23:25;;;;;;;1.25;0.70;;;8.90;34.00;;;;;;5035124;28;20644;-49
2023/01/17 07:25:56;;;;;;;1.87;1.00;;;8.90;34.20;;;;;;5035091;28;20201;-48
2023/01/17 07:28:23;;;;;;;1.92;1.13;;;9.00;33.80;;;;;;5035084;28;20540;-49
2023/01/17 07:30:48;;;;;;;2.22;1.08;;;8.90;33.80;;;;;;5035074;28;20181;-49
2023/01/17 07:33:14;;;;;;;1.30;0.80;;;8.80;34.00;;;;;;5034927;28;20223;-48
2023/01/17 07:35:40;;;;;;;2.10;1.37;;;8.80;33.70;;;;;;5035091;28;20407;-48
2023/01/17 07:38:10;;;;;;;1.42;0.98;;;8.80;33.90;;;;;;5035274;28;20177;-48
2023/01/17 07:40:37;;;;;;;3.25;1.00;;;8.80;33.90;;;;;;5034903;28;20729;-48
2023/01/17 07:43:12;;;;;;;1.52;0.80;;;8.90;33.70;;;;;;5034713;28;20227;-48
2023/01/17 07:45:49;;;;;;;2.22;1.17;;;8.90;33.50;;;;;;5034950;28;20165;-48
2023/01/17 07:48:19;;;;;;;2.00;0.95;;;8.90;33.70;;;;;;5035005;28;20237;-48
2023/01/17 07:50:54;;;;;;;1.40;0.88;;;8.90;33.50;;;;;;5034741;28;20165;-49
2023/01/17 07:53:22;;;;;;;1.90;0.90;;;8.70;34.20;;;;;;5034480;28;20243;-49
2023/01/17 07:55:48;;;;;;;4.97;1.35;;;8.60;34.00;;;;;;5034439;28;20188;-48
2023/01/17 07:58:14;;;;;;;2.60;1.10;;;8.50;34.40;;;;;;5034211;28;20177;-49
2023/01/17 08:00:42;;;;;;;2.30;1.10;;;8.40;34.60;;;;;;5034913;28;20180;-49
2023/01/17 08:03:12;;;;;;;1.98;0.98;;;8.40;34.70;;;;;;5034488;28;20209;-49
2023/01/17 08:05:39;;;;;;;1.35;0.82;;;8.40;34.90;;;;;;5034357;28;20178;-48
2023/01/17 08:08:05;;;;;;;1.85;1.45;;;8.50;34.70;;;;;;5034364;28;20204;-48
2023/01/17 08:10:30;;;;;;;2.20;1.13;;;8.60;34.10;;;;;;5034640;28;20172;-48
2023/01/17 08:12:56;;;;;;;3.53;2.93;;;8.60;34.40;;;;;;5034324;28;20428;-49
2023/01/17 08:15:22;;;;;;;7.23;1.27;;;8.70;34.10;;;;;;5034067;28;20164;-48
2023/01/17 08:17:52;;;;;;;1.85;0.95;;;8.70;33.80;;;;;;5034196;28;20185;-48
2023/01/17 08:20:19;;;;;;;1.75;0.95;;;8.90;33.60;;;;;;5034797;28;20173;-48
2023/01/17 08:22:45;;;;;;;1.70;0.95;;;9.00;33.20;;;;;;5034060;28;20201;-48
2023/01/17 08:25:11;;;;;;;1.88;1.10;;;9.30;33.00;;;;;;5033903;28;20671;-48
2023/01/17 08:27:38;;;;;;;2.55;1.38;;;9.40;32.50;;;;;;5033962;28;20254;-49
2023/01/17 08:30:05;;;;;;;1.77;1.10;;;9.30;32.70;;;;;;5034263;28;20173;-48
2023/01/17 08:32:32;;;;;;;2.10;1.60;;;9.40;32.60;;;;;;5033971;28;20191;-49
2023/01/17 08:34:57;;;;;;;2.40;1.25;;;9.40;32.60;;;;;;5033781;28;20177;-49
2023/01/17 08:37:23;;;;;;;1.90;1.30;;;9.40;32.40;;;;;;5034135;28;20211;-49
2023/01/17 08:39:49;;;;;;;2.40;1.27;;;9.40;32.70;;;;;;5034018;28;20287;-49
2023/01/17 08:42:15;;;;;;;2.30;1.23;;;9.40;32.70;;;;;;5033761;28;20194;-49
2023/01/17 08:44:42;;;;;;;2.90;1.00;;;9.30;33.30;;;;;;5033555;28;20308;-49
2023/01/17 08:47:08;;;;;;;1.67;1.13;;;9.20;32.80;;;;;;5033663;28;20409;-49
2023/01/17 08:49:33;;;;;;;1.80;1.07;;;8.90;33.40;;;;;;5033813;28;20248;-50
2023/01/17 08:51:59;;;;;;;2.13;1.10;;;8.90;33.60;;;;;;5033909;28;20939;-50
2023/01/17 08:54:25;;;;;;;3.43;1.40;;;8.90;33.60;;;;;;5033548;28;20192;-49
2023/01/17 08:56:51;;;;;;;2.03;1.50;;;8.90;33.50;;;;;;5033562;28;20632;-49
2023/01/17 08:59:17;;;;;;;1.88;1.20;;;8.90;33.70;;;;;;5033410;28;20665;-49
2023/01/17 09:01:44;;;;;;;1.85;1.20;;;8.80;34.30;;;;;;5033503;28;20180;-49
2023/01/17 09:04:11;;;;;;;3.67;1.60;;;9.10;33.70;;;;;;5033548;28;20204;-49
2023/01/17 09:06:39;;;;;;;2.30;1.55;;;9.80;32.90;;;;;;5033155;28;20725;-49
2023/01/17 09:09:06;;;;;;;3.70;1.17;;;10.60;31.30;;;;;;5032690;28;20304;-50
2023/01/17 09:11:32;;;;;;;1.42;1.00;;;11.70;29.40;;;;;;5033536;28;20182;-49
2023/01/17 09:13:58;;;;;;;2.53;1.30;;;12.60;28.60;;;;;;5033343;28;20196;-50
2023/01/17 09:16:24;;;;;;;2.70;1.47;;;13.50;25.70;;;;;;5033064;28;20170;-49
2023/01/17 09:18:54;;;;;;;2.88;1.00;;;14.00;25.60;;;;;;5033023;28;20423;-49
2023/01/17 09:21:20;;;;;;;3.42;1.88;;;14.30;23.80;;;;;;5033273;28;20185;-49
2023/01/17 09:23:46;;;;;;;2.30;1.10;;;13.80;23.80;;;;;;5032956;28;20186;-49
2023/01/17 09:26:24;;;;;;;2.20;1.33;;;13.60;25.30;;;;;;5033025;28;20636;-49
2023/01/17 09:28:50;;;;;;;1.90;1.13;;;13.70;24.40;;;;;;5032804;28;20731;-50
2023/01/17 09:31:19;;;;;;;1.48;1.10;;;13.50;25.00;;;;;;5032858;28;20170;-49
2023/01/17 09:33:45;;;;;;;2.90;1.75;;;13.50;25.10;;;;;;5032809;28;20811;-49
2023/01/17 09:36:11;;;;;;;2.45;1.02;;;13.30;25.20;;;;;;5032927;28;20203;-49
2023/01/17 09:38:38;;;;;;;1.60;1.02;;;13.10;25.00;;;;;;5032729;28;20661;-49
2023/01/17 09:41:20;;;;;;;2.58;1.23;;;12.90;25.10;;;;;;5032700;28;20181;-49
2023/01/17 09:44:01;;;;;;;3.55;1.25;;;12.80;25.30;;;;;;5032527;28;20221;-49
2023/01/17 09:46:36;;;;;;;3.65;1.88;;;12.40;25.90;;;;;;5032609;28;20177;-50
2023/01/17 09:49:31;;;;;;;2.25;1.48;;;12.30;25.80;;;;;;5032473;28;20256;-50
2023/01/17 09:51:57;;;;;;;1.80;1.00;;;12.20;25.80;;;;;;5032609;28;20253;-49
2023/01/17 09:54:29;;;;;;;4.80;2.05;;;12.00;26.60;;;;;;5032143;28;20228;-50
2023/01/17 09:57:16;;;;;;;2.10;1.20;;;12.00;26.00;;;;;;5032738;28;20158;-49
2023/01/17 09:59:50;;;;;;;2.53;1.30;;;12.20;26.40;;;;;;5032527;28;20178;-50
2023/01/17 10:02:30;;;;;;;1.77;1.25;;;12.70;26.40;;;;;;5032386;28;20174;-50
2023/01/17 10:05:23;;;;;;;2.67;0.82;;;12.80;25.50;;;;;;5032362;28;20182;-49
2023/01/17 10:08:12;;;;;;;2.30;1.40;;;12.50;25.10;;;;;;5032248;28;20174;-50
2023/01/17 10:11:21;;;;;;;1.90;1.60;;;12.30;25.90;;;;;;5032154;28;20232;-49
2023/01/17 10:13:53;;;;;;;3.55;1.30;;;11.90;25.80;;;;;;5024632;28;20193;-49
2023/01/17 10:16:30;;;;;;;2.63;1.45;;;11.30;26.40;;;;;;5032049;28;20526;-49
2023/01/17 10:19:11;;;;;;;3.20;1.75;;;10.90;26.90;;;;;;5032129;28;20170;-49
2023/01/17 10:21:48;;;;;;;2.15;1.10;;;10.70;27.70;;;;;;5031913;28;20184;-50
2023/01/17 10:24:43;;;;;;;2.38;0.98;;;10.60;28.10;;;;;;5031898;28;20244;-50
2023/01/17 10:27:20;;;;;;;1.30;0.98;;;10.80;27.30;;;;;;5032049;28;20553;-49
2023/01/17 10:29:49;;;;;;;2.72;1.30;;;10.40;28.00;;;;;;5032143;28;20272;-50
2023/01/17 10:32:15;;;;;;;1.60;0.98;;;10.20;28.10;;;;;;5031839;28;20542;-49
2023/01/17 10:34:50;;;;;;;2.40;1.10;;;10.10;28.30;;;;;;5031673;28;20219;-49
2023/01/17 10:37:18;;;;;;;4.03;1.30;;;10.20;28.90;;;;;;5031910;28;20425;-49
2023/01/17 10:39:46;;;;;;;3.30;1.60;;;10.00;28.50;;;;;;5031922;28;20264;-49
2023/01/17 10:42:27;;;;;;;1.65;1.00;;;9.80;29.00;;;;;;5031891;28;20185;-50
2023/01/17 10:45:14;;;;;;;3.67;1.40;;;9.80;28.70;;;;;;5031721;28;20541;-50
2023/01/17 10:47:45;;;;;;;1.48;1.05;;;9.80;29.30;;;;;;5031912;28;20256;-49
2023/01/17 10:50:12;;;;;;;2.00;1.05;;;9.90;29.60;;;;;;5031945;28;20185;-50
2023/01/17 10:53:07;;;;;;;2.05;1.33;;;10.00;28.60;;;;;;5032001;28;20193;-49
2023/01/17 10:55:52;;;;;;;1.80;1.10;;;10.00;28.80;;;;;;5031777;28;20259;-50
2023/01/17 10:58:18;;;;;;;2.40;1.17;;;9.90;28.20;;;;;;5032050;28;20163;-49
2023/01/17 11:00:59;;;;;;;2.30;1.48;;;9.70;28.50;;;;;;5031719;28;20182;-49
2023/01/17 11:03:27;;;;;;;1.75;0.93;;;9.60;28.40;;;;;;5031644;28;20188;-49
2023/01/17 11:06:19;;;;;;;1.98;1.50;;;9.40;29.00;;;;;;5031655;28;20213;-49
2023/01/17 11:09:01;;;;;;;5.25;1.23;;;9.50;29.30;;;;;;5031639;28;20224;-49
2023/01/17 11:11:33;;;;;;;2.40;1.67;;;9.70;28.90;;;;;;5031559;28;20182;-49
2023/01/17 11:14:15;;;;;;;2.10;1.15;;;9.50;29.10;;;;;;5031570;28;20186;-49
2023/01/17 11:16:42;;;;;;;2.97;1.27;;;9.50;29.20;;;;;;5031704;28;20181;-49
2023/01/17 11:19:24;;;;;;;1.55;0.95;;;9.50;28.20;;;;;;5031580;28;20178;-50
2023/01/17 11:21:57;;;;;;;2.22;1.40;;;9.60;28.40;;;;;;5031807;28;20166;-49
2023/01/17 11:24:40;;;;;;;1.70;0.95;;;9.70;28.70;;;;;;5031222;28;20201;-49
2023/01/17 11:27:21;;;;;;;3.65;1.58;;;9.80;27.90;;;;;;5030228;28;20277;-49
2023/01/17 11:29:47;;;;;;;2.95;1.25;;;9.80;28.40;;;;;;5031612;28;20227;-50
2023/01/17 11:32:22;;;;;;;1.87;1.27;;;10.00;28.10;;;;;;5032644;28;20192;-49
2023/01/17 11:35:06;;;;;;;3.20;1.42;;;10.10;28.00;;;;;;5035298;28;20203;-50
2023/01/17 11:37:34;;;;;;;3.90;1.30;;;10.50;28.00;;;;;;5035595;28;20193;-50
2023/01/17 11:40:38;;;;;;;2.22;1.17;;;10.60;26.90;;;;;;5033823;28;20218;-49
2023/01/17 11:43:19;;;;;;;1.50;0.95;;;10.80;26.10;;;;;;5012706;28;20264;-49
2023/01/17 11:45:59;;;;;;;2.13;1.00;;;10.80;26.10;;;;;;5012647;28;20178;-50
2023/01/17 11:48:25;;;;;;;2.35;1.30;;;11.00;27.00;;;;;;5012830;28;20191;-50
2023/01/17 11:50:57;;;;;;;2.47;1.50;;;11.40;26.70;;;;;;5012630;28;20288;-50
2023/01/17 11:53:26;;;;;;;1.88;1.20;;;12.00;25.20;;;;;;5012613;28;20446;-50
2023/01/17 11:55:58;;;;;;;1.73;1.15;;;12.60;24.00;;;;;;5012474;28;20224;-50
2023/01/17 11:58:26;;;;;;;1.60;1.05;;;12.60;23.10;;;;;;5012583;28;20186;-50
2023/01/17 12:01:37;;;;;;;1.50;1.20;;;12.40;23.10;;;;;;5012550;28;20582;-50
2023/01/17 12:04:29;;;;;;;4.35;1.10;;;12.10;24.30;;;;;;5012331;28;20218;-50
2023/01/17 12:07:16;;;;;;;2.03;1.17;;;12.70;24.60;;;;;;5012451;28;20547;-50
2023/01/17 12:09:46;;;;;;;4.50;1.27;;;13.90;23.10;;;;;;5012253;28;20238;-50
2023/01/17 12:15:29;;;;;;;2.60;1.30;;;15.40;20.50;;;;;;5012530;28;20182;-50
2023/01/17 12:17:58;;;;;;;1.60;1.10;;;15.60;19.60;;;;;;5031697;28;20669;-50
2023/01/17 12:20:40;;;;;;;2.85;1.48;;;15.50;19.50;;;;;;5034486;28;20515;-50
2023/01/17 12:23:27;;;;;;;2.47;1.23;;;15.40;19.40;;;;;;5034106;28;20665;-50
2023/01/17 12:26:18;;;;;;;1.85;1.25;;;15.10;18.90;;;;;;5033967;28;20181;-50
2023/01/17 12:29:10;;;;;;;3.03;1.42;;;14.90;20.30;;;;;;5033989;28;20598;-50
2023/01/17 12:31:47;;;;;;;2.15;1.20;;;15.00;20.10;;;;;;5034354;28;20163;-50
2023/01/17 12:34:54;;;;;;;2.10;1.38;;;15.70;20.80;;;;;;5033817;28;20193;-50
2023/01/17 12:37:33;;;;;;;2.03;1.33;;;16.60;18.80;;;;;;5028900;28;20573;-50
2023/01/17 12:40:16;;;;;;;1.50;1.02;;;17.60;18.00;;;;;;5033914;28;20530;-50
2023/01/17 12:43:02;;;;;;;3.42;1.33;;;18.60;16.90;;;;;;5033435;28;20201;-51
2023/01/17 12:45:33;;;;;;;1.50;1.02;;;19.10;16.50;;;;;;5033246;28;20181;-51
2023/01/17 12:48:05;;;;;;;2.08;1.40;;;19.40;16.90;;;;;;5033756;28;20249;-51
2023/01/17 12:50:42;;;;;;;2.40;1.50;;;19.90;16.60;;;;;;5033865;28;20182;-51
2023/01/17 12:53:35;;;;;;;4.28;1.30;;;20.50;15.40;;;;;;5033470;28;20665;-50
2023/01/17 12:56:12;;;;;;;2.00;1.20;;;20.80;15.00;;;;;;5033436;28;20174;-51
2023/01/17 12:58:46;;;;;;;7.90;2.05;;;20.70;15.20;;;;;;5033499;28;20166;-51
2023/01/17 13:01:11;;;;;;;1.80;1.13;;;20.70;14.80;;;;;;5033600;28;20208;-51
2023/01/17 13:03:37;;;;;;;3.77;1.43;;;21.30;14.30;;;;;;5033394;28;20193;-50
2023/01/17 13:06:06;;;;;;;2.43;1.47;;;21.50;15.10;;;;;;5033351;28;20178;-51
2023/01/17 13:08:41;;;;;;;2.28;1.45;;;21.90;13.60;;;;;;5033375;28;20284;-51
2023/01/17 13:11:29;;;;;;;1.60;1.27;;;22.30;15.00;;;;;;5033297;28;20170;-51
2023/01/17 13:13:58;;;;;;;2.00;1.70;;;22.80;13.30;;;;;;5033185;28;20243;-51
2023/01/17 13:16:39;;;;;;;1.75;1.40;;;22.70;13.10;;;;;;5032968;28;20556;-51
2023/01/17 13:19:43;;;;;;;1.95;1.15;;;22.50;13.90;;;;;;5033089;28;20556;-51
2023/01/17 13:22:16;;;;;;;2.17;1.50;;;22.30;14.70;;;;;;5024591;28;20264;-51
2023/01/17 13:25:03;;;;;;;1.60;1.20;;;21.70;15.00;;;;;;5032834;28;20181;-50
2023/01/17 13:27:49;;;;;;;1.80;1.55;;;21.00;14.80;;;;;;5032944;28;20178;-51
2023/01/17 13:31:09;;;;;;;2.45;1.50;;;20.00;14.60;;;;;;5033222;28;20166;-51
2023/01/17 13:33:35;;;;;;;1.70;1.00;;;19.30;16.20;;;;;;5010820;28;20277;-51
2023/01/17 13:36:24;;;;;;;1.40;0.70;;;19.10;16.30;;;;;;5030799;28;20710;-51
2023/01/17 13:39:10;;;;;;;1.80;1.15;;;19.40;16.80;;;;;;5032712;28;20388;-50
2023/01/17 13:41:49;;;;;;;1.85;1.20;;;19.40;15.90;;;;;;5033001;28;20177;-50
2023/01/17 13:44:21;;;;;;;3.95;1.52;;;18.50;15.40;;;;;;5032467;28;20251;-50
2023/01/17 13:47:05;;;;;;;2.75;1.65;;;18.10;16.00;;;;;;5032951;28;20184;-50
2023/01/17 13:49:40;;;;;;;2.67;1.77;;;18.10;16.10;;;;;;5032567;28;20658;-51
2023/01/17 13:52:19;;;;;;;9.70;1.65;;;18.10;16.60;;;;;;5032647;28;20254;-51
2023/01/17 13:54:48;;;;;;;3.78;1.95;;;18.20;17.10;;;;;;5032153;28;20162;-50
2023/01/17 13:57:31;;;;;;;5.30;1.80;;;17.60;16.30;;;;;;5032447;28;20224;-50
2023/01/17 14:00:20;;;;;;;2.10;1.40;;;17.10;17.00;;;;;;5032287;28;20193;-50
2023/01/17 14:02:50;;;;;;;3.60;1.80;;;16.50;17.60;;;;;;5032316;28;20205;-50
2023/01/17 14:05:38;;;;;;;3.40;1.40;;;15.80;17.70;;;;;;5032122;28;20618;-50
2023/01/17 14:08:16;;;;;;;2.03;1.27;;;15.50;17.90;;;;;;5032475;28;20186;-50
2023/01/17 14:10:53;;;;;;;4.70;1.45;;;15.30;18.70;;;;;;5032256;28;20220;-50
2023/01/17 14:13:38;;;;;;;4.07;1.75;;;15.20;19.10;;;;;;5032455;28;20193;-50
2023/01/17 14:16:25;;;;;;;1.45;0.90;;;15.20;18.50;;;;;;5031941;28;20174;-50
2023/01/17 14:18:52;;;;;;;1.50;1.05;;;14.80;19.10;;;;;;5032043;28;20185;-50
2023/01/17 14:21:27;;;;;;;2.10;1.20;;;14.60;19.80;;;;;;5032197;28;20185;-50
2023/01/17 14:23:58;;;;;;;3.15;1.90;;;14.30;19.60;;;;;;5032037;28;20276;-50
2023/01/17 14:26:40;;;;;;;3.00;1.90;;;13.90;20.00;;;;;;5032156;28;20169;-50
2023/01/17 14:29:43;;;;;;;2.88;1.65;;;13.60;20.60;;;;;;5032092;28;20194;-50
2023/01/17 14:32:12;;;;;;;3.15;1.92;;;13.20;20.70;;;;;;5032137;28;20174;-50
2023/01/17 14:34:38;;;;;;;2.60;1.70;;;12.80;21.20;;;;;;5031838;28;20166;-50
2023/01/17 14:37:34;;;;;;;3.40;2.43;;;12.60;21.70;;;;;;5032090;28;20178;-50
2023/01/17 14:40:00;;;;;;;3.83;2.15;;;12.40;22.50;;;;;;5031891;28;20169;-49